Time;durP1;ratioP1;P1;durP2;ratioP2;P2;SDS_P1;SDS_P2;PMS_P1;PMS_P2;Temp;Humidity;BMP_temperature;BMP_pressure;BME280_temperature;BME280_humidity;BME280_pressure;Samples;Min_cycle;Max_cycle;Signal;HPM_P1;HPM_P2
2020/12/28 00:01:16;;;;;;;1.63;0.80;;;;;;;4.19;78.33;95388.09;5115842;27;20524;-64
2020/12/28 00:03:42;;;;;;;0.60;0.60;;;;;;;4.18;78.26;95396.97;5133832;27;20054;-64
2020/12/28 00:06:10;;;;;;;0.75;0.65;;;;;;;4.17;78.27;95400.63;5134105;27;20050;-64
2020/12/28 00:08:37;;;;;;;0.80;0.70;;;;;;;4.19;78.39;95400.38;5134109;27;20047;-64
2020/12/28 00:11:03;;;;;;;0.80;0.80;;;;;;;4.19;78.52;95406.38;5134057;27;20047;-64
2020/12/28 00:13:30;;;;;;;0.75;0.75;;;;;;;4.16;78.58;95404.28;5133677;27;20047;-65
2020/12/28 00:15:57;;;;;;;0.80;0.80;;;;;;;4.14;78.36;95390.63;5133955;27;20126;-64
2020/12/28 00:18:23;;;;;;;0.63;0.63;;;;;;;4.13;78.80;95389.03;5134393;27;20055;-65
2020/12/28 00:20:52;;;;;;;1.88;0.93;;;;;;;4.12;78.85;95397.91;5133989;27;20408;-65
2020/12/28 00:23:19;;;;;;;0.70;0.70;;;;;;;4.21;78.84;95396.50;5133508;27;20497;-64
2020/12/28 00:25:46;;;;;;;0.60;0.60;;;;;;;4.19;78.83;95388.09;5133720;27;20492;-64
2020/12/28 00:28:13;;;;;;;0.77;0.70;;;;;;;4.16;78.89;95387.75;5133833;27;20039;-65
2020/12/28 00:30:39;;;;;;;0.73;0.73;;;;;;;4.20;79.10;95373.19;5133897;27;20039;-65
2020/12/28 00:33:06;;;;;;;0.80;0.80;;;;;;;4.25;78.87;95382.97;5133584;27;20521;-65
2020/12/28 00:35:33;;;;;;;0.80;0.80;;;;;;;4.23;78.97;95381.34;5133347;27;20035;-65
2020/12/28 00:37:59;;;;;;;1.13;1.02;;;;;;;4.27;79.04;95375.66;5133466;27;20043;-65
2020/12/28 00:40:27;;;;;;;0.88;0.88;;;;;;;4.24;78.93;95376.91;5133521;27;20039;-64
2020/12/28 00:42:54;;;;;;;1.10;0.90;;;;;;;4.26;78.95;95374.09;5114775;27;20472;-63
2020/12/28 00:45:23;;;;;;;0.77;0.65;;;;;;;4.19;78.80;95377.63;5133264;27;20552;-64
2020/12/28 00:47:50;;;;;;;0.70;0.70;;;;;;;4.19;78.72;95375.03;5132684;27;20046;-64
2020/12/28 00:50:17;;;;;;;2.15;0.75;;;;;;;4.20;78.84;95368.78;5114899;27;20101;-64
2020/12/28 00:52:44;;;;;;;0.65;0.65;;;;;;;4.21;78.60;95372.97;5133254;27;20518;-65
2020/12/28 00:55:10;;;;;;;0.65;0.63;;;;;;;4.18;78.69;95365.59;5114555;27;20043;-65
2020/12/28 00:57:38;;;;;;;1.02;0.85;;;;;;;4.21;78.92;95366.97;5133254;27;20046;-64
2020/12/28 01:00:06;;;;;;;1.40;0.80;;;;;;;4.23;78.65;95375.34;5114986;27;20051;-64
2020/12/28 01:02:56;;;;;;;0.57;0.57;;;;;;;4.21;78.63;95382.66;5122014;27;20134;-64
2020/12/28 01:05:46;;;;;;;1.05;0.88;;;;;;;4.20;78.84;95354.88;5132966;27;20096;-64
2020/12/28 01:08:13;;;;;;;0.80;0.80;;;;;;;4.22;78.79;95368.53;5114782;28;20096;-64
2020/12/28 01:10:42;;;;;;;0.82;0.82;;;;;;;4.29;78.83;95361.34;5114614;27;20413;-64
2020/12/28 01:13:11;;;;;;;1.17;0.90;;;;;;;4.25;78.56;95356.81;5114459;27;20051;-65
2020/12/28 01:15:43;;;;;;;0.70;0.60;;;;;;;4.29;78.61;95343.03;5114544;27;20058;-65
2020/12/28 01:18:14;;;;;;;0.98;0.80;;;;;;;4.29;78.49;95332.56;5114849;28;20061;-64
2020/12/28 01:20:50;;;;;;;0.70;0.70;;;;;;;4.26;78.73;95332.25;5114726;27;20047;-64
2020/12/28 01:23:18;;;;;;;0.82;0.82;;;;;;;4.26;78.80;95348.72;5114422;28;20039;-64
2020/12/28 01:26:05;;;;;;;0.80;0.80;;;;;;;4.25;79.02;95365.47;5132401;27;20081;-64
2020/12/28 01:28:37;;;;;;;0.70;0.63;;;;;;;4.26;78.97;95385.34;5114629;28;20081;-64
2020/12/28 01:31:05;;;;;;;0.70;0.70;;;;;;;4.29;78.86;95378.84;5114555;28;20082;-64
2020/12/28 01:34:04;;;;;;;1.10;0.70;;;;;;;4.25;78.85;95364.66;5086853;28;20531;-64
2020/12/28 01:36:39;;;;;;;1.08;0.68;;;;;;;4.27;78.88;95355.53;5114485;28;20064;-64
2020/12/28 01:39:14;;;;;;;1.02;0.90;;;;;;;4.29;78.73;95355.31;5114394;28;20053;-64
2020/12/28 01:41:41;;;;;;;0.70;0.70;;;;;;;4.27;78.70;95376.47;5114405;28;20054;-64
2020/12/28 01:44:09;;;;;;;0.60;0.60;;;;;;;4.24;78.69;95379.53;5114060;28;20036;-64
2020/12/28 01:46:40;;;;;;;0.63;0.60;;;;;;;4.20;78.91;95375.81;5114280;27;20043;-64
2020/12/28 01:49:08;;;;;;;0.90;0.60;;;;;;;4.21;78.87;95382.66;5114354;28;20069;-64
2020/12/28 01:51:35;;;;;;;0.68;0.68;;;;;;;4.18;79.17;95390.94;5114325;28;20047;-64
2020/12/28 01:54:02;;;;;;;1.27;0.73;;;;;;;4.17;79.30;95398.00;5114048;28;20055;-64
2020/12/28 01:56:47;;;;;;;1.02;0.60;;;;;;;4.20;79.27;95400.16;5114251;28;20058;-64
2020/12/28 01:59:18;;;;;;;0.68;0.57;;;;;;;4.19;79.23;95393.31;5116465;27;20532;-64
2020/12/28 02:01:51;;;;;;;0.68;0.68;;;;;;;4.19;79.28;95388.09;5118446;27;20108;-64
2020/12/28 02:04:19;;;;;;;0.70;0.70;;;;;;;4.20;79.13;95400.16;5136413;27;20055;-64
2020/12/28 02:06:55;;;;;;;0.50;0.50;;;;;;;4.18;79.26;95385.72;5118792;27;20054;-64
2020/12/28 02:09:24;;;;;;;0.60;0.60;;;;;;;4.18;79.22;95383.91;5118525;27;20047;-64
2020/12/28 02:11:50;;;;;;;0.52;0.52;;;;;;;4.21;79.20;95375.59;5136814;27;20053;-64
2020/12/28 02:14:18;;;;;;;0.70;0.70;;;;;;;4.22;79.00;95366.72;5117950;27;20088;-64
2020/12/28 02:17:25;;;;;;;0.68;0.68;;;;;;;4.21;79.01;95372.19;5108970;27;20116;-64
2020/12/28 02:20:11;;;;;;;0.88;0.63;;;;;;;4.19;78.94;95351.50;5118071;27;20046;-64
2020/12/28 02:22:40;;;;;;;0.63;0.63;;;;;;;4.25;79.08;95351.59;5118039;27;20059;-64
2020/12/28 02:25:07;;;;;;;1.48;0.70;;;;;;;4.22;78.87;95364.09;5117503;27;20566;-64
2020/12/28 02:27:36;;;;;;;0.80;0.73;;;;;;;4.22;78.91;95356.25;5117835;27;20099;-64
2020/12/28 02:30:04;;;;;;;0.77;0.60;;;;;;;4.27;79.01;95365.22;5118006;27;20047;-65
2020/12/28 02:32:38;;;;;;;1.05;0.80;;;;;;;4.26;78.51;95361.81;5117774;27;20054;-64
2020/12/28 02:35:25;;;;;;;0.68;0.68;;;;;;;4.29;78.79;95350.88;5121185;27;20500;-64
2020/12/28 02:37:56;;;;;;;0.85;0.65;;;;;;;4.34;78.88;95348.34;5117805;27;20062;-64
2020/12/28 02:40:24;;;;;;;1.13;0.90;;;;;;;4.31;78.74;95346.19;5117531;27;20039;-64
2020/12/28 02:42:52;;;;;;;1.48;0.70;;;;;;;4.28;78.80;95345.88;5117453;27;20138;-64
2020/12/28 02:45:37;;;;;;;1.05;0.60;;;;;;;4.28;78.91;95362.34;5135652;27;20054;-64
2020/12/28 02:48:25;;;;;;;0.70;0.70;;;;;;;4.22;78.76;95347.63;5083698;27;20051;-64
2020/12/28 02:51:12;;;;;;;0.80;0.80;;;;;;;4.29;78.94;95358.72;5135895;27;20111;-64
2020/12/28 02:53:59;;;;;;;1.25;1.08;;;;;;;4.35;78.71;95362.22;5135700;27;20131;-64
2020/12/28 02:56:44;;;;;;;0.65;0.63;;;;;;;4.34;78.68;95345.72;5135911;27;20408;-64
2020/12/28 02:59:29;;;;;;;0.80;0.80;;;;;;;4.35;78.72;95349.13;5135877;27;20131;-64
2020/12/28 03:02:15;;;;;;;0.65;0.65;;;;;;;4.31;78.59;95351.41;5135761;27;20061;-64
2020/12/28 03:05:14;;;;;;;0.70;0.70;;;;;;;4.30;78.31;95333.38;5078484;27;20120;-64
2020/12/28 03:07:59;;;;;;;0.73;0.65;;;;;;;4.33;78.63;95336.31;5136130;27;20053;-64
2020/12/28 03:11:05;;;;;;;0.68;0.68;;;;;;;4.30;78.51;95349.06;5031271;28;20172;-64
2020/12/28 03:14:07;;;;;;;0.50;0.50;;;;;;;4.28;78.24;95348.47;4972685;28;20054;-64
2020/12/28 03:16:52;;;;;;;0.70;0.70;;;;;;;4.30;78.33;95342.00;5114311;27;20066;-64
2020/12/28 03:19:37;;;;;;;1.75;0.60;;;;;;;4.33;78.37;95327.66;5135665;27;20078;-63
2020/12/28 03:22:22;;;;;;;0.77;0.77;;;;;;;4.29;78.17;95335.19;5135429;27;20073;-64
2020/12/28 03:25:07;;;;;;;0.60;0.60;;;;;;;4.31;78.11;95312.19;5134753;27;20077;-64
2020/12/28 03:27:53;;;;;;;1.73;0.80;;;;;;;4.40;78.23;95310.75;5135218;27;20049;-64
2020/12/28 03:30:38;;;;;;;0.93;0.70;;;;;;;4.40;77.97;95317.81;5135327;27;20135;-64
2020/12/28 03:33:23;;;;;;;2.38;0.80;;;;;;;4.41;77.72;95314.97;5135065;27;20250;-64
2020/12/28 03:36:09;;;;;;;3.65;0.80;;;;;;;4.45;77.69;95315.31;5135228;27;20515;-64
2020/12/28 03:38:54;;;;;;;0.85;0.75;;;;;;;4.42;77.41;95323.63;5135135;27;20547;-63
2020/12/28 03:41:39;;;;;;;0.70;0.70;;;;;;;4.42;77.59;95331.47;5135184;27;20050;-63
2020/12/28 03:44:41;;;;;;;1.42;0.63;;;;;;;4.45;77.44;95338.84;5134550;27;20168;-63
2020/12/28 03:47:26;;;;;;;0.70;0.70;;;;;;;4.45;77.39;95328.38;5134954;27;20050;-64
2020/12/28 03:50:11;;;;;;;0.70;0.70;;;;;;;4.41;77.48;95328.06;5135001;27;20062;-64
2020/12/28 03:52:57;;;;;;;1.02;0.93;;;;;;;4.43;77.42;95333.84;5134890;27;20054;-64
2020/12/28 03:55:42;;;;;;;2.40;1.00;;;;;;;4.42;77.62;95323.63;5134379;27;20619;-64
2020/12/28 03:58:27;;;;;;;0.80;0.80;;;;;;;4.46;77.47;95333.38;5134583;27;20523;-63
2020/12/28 04:01:30;;;;;;;0.82;0.73;;;;;;;4.48;77.34;95343.56;5051107;28;20049;-63
2020/12/28 04:04:15;;;;;;;1.55;0.60;;;;;;;4.45;77.33;95344.06;5127612;27;20416;-63
2020/12/28 04:07:01;;;;;;;1.67;0.80;;;;;;;4.43;77.42;95343.50;5134408;27;20046;-63
2020/12/28 04:10:06;;;;;;;1.70;0.80;;;;;;;4.45;77.15;95339.63;5050992;28;20122;-63
2020/12/28 04:12:47;;;;;;;1.67;0.70;;;;;;;4.50;77.28;95330.28;5034112;28;20502;-63
2020/12/28 04:15:14;;;;;;;0.70;0.70;;;;;;;4.45;77.06;95331.78;5098325;27;20047;-63
2020/12/28 04:17:41;;;;;;;0.85;0.85;;;;;;;4.43;77.14;95319.97;5134254;27;20035;-63
2020/12/28 04:20:08;;;;;;;0.75;0.75;;;;;;;4.43;77.07;95312.13;5134152;27;20096;-63
2020/12/28 04:22:35;;;;;;;2.38;1.00;;;;;;;4.41;76.90;95301.91;5132943;27;20043;-63
2020/12/28 04:25:01;;;;;;;0.70;0.70;;;;;;;4.44;76.76;95296.19;5133521;27;20039;-64
2020/12/28 04:27:28;;;;;;;1.98;1.00;;;;;;;4.49;76.88;95298.09;5133981;27;20450;-63
2020/12/28 04:29:55;;;;;;;2.15;0.73;;;;;;;4.51;76.81;95292.63;5133906;27;20043;-64
2020/12/28 04:32:22;;;;;;;0.80;0.80;;;;;;;4.48;76.53;95291.25;5133860;27;20043;-64
2020/12/28 04:34:49;;;;;;;0.70;0.70;;;;;;;4.52;76.55;95302.03;5115069;27;20054;-63
2020/12/28 04:37:16;;;;;;;1.15;0.75;;;;;;;4.53;76.36;95309.66;5133767;27;20523;-63
2020/12/28 04:39:42;;;;;;;0.90;0.90;;;;;;;4.55;76.37;95314.66;5133751;27;20043;-63
2020/12/28 04:42:09;;;;;;;1.30;0.70;;;;;;;4.54;76.11;95313.06;5133703;27;20096;-63
2020/12/28 04:44:36;;;;;;;2.63;0.98;;;;;;;4.53;75.93;95308.84;5133148;27;20043;-63
2020/12/28 04:47:03;;;;;;;0.70;0.70;;;;;;;4.53;76.05;95293.16;5133640;27;20035;-63
2020/12/28 04:49:30;;;;;;;1.25;1.08;;;;;;;4.53;75.98;95298.38;5133596;27;20039;-63
2020/12/28 04:51:59;;;;;;;1.58;1.05;;;;;;;4.50;76.04;95286.59;5133450;27;20230;-63
2020/12/28 04:54:25;;;;;;;2.28;0.98;;;;;;;4.47;75.68;95282.63;5133184;27;20074;-62
2020/12/28 04:56:52;;;;;;;1.55;0.85;;;;;;;4.43;75.69;95278.13;5133443;27;20072;-63
2020/12/28 04:59:19;;;;;;;0.80;0.80;;;;;;;4.36;75.72;95267.03;5133469;27;20047;-63
2020/12/28 05:01:53;;;;;;;1.15;0.70;;;;;;;4.31;75.38;95267.75;5133357;27;20059;-63
2020/12/28 05:04:20;;;;;;;2.25;0.90;;;;;;;4.27;75.10;95269.25;5133020;27;20234;-63
2020/12/28 05:06:58;;;;;;;1.58;1.00;;;;;;;4.27;75.21;95269.25;5133078;27;20043;-63
2020/12/28 05:09:25;;;;;;;1.50;1.00;;;;;;;4.22;75.42;95275.22;5133307;27;20047;-64
2020/12/28 05:11:52;;;;;;;1.40;0.95;;;;;;;4.21;75.46;95271.00;5133245;27;20118;-63
2020/12/28 05:14:19;;;;;;;1.73;0.90;;;;;;;4.14;75.55;95278.22;5132856;27;20519;-63
2020/12/28 05:16:46;;;;;;;2.00;0.70;;;;;;;4.13;75.62;95275.84;5133082;27;20047;-63
2020/12/28 05:19:13;;;;;;;1.10;1.00;;;;;;;4.09;75.75;95270.31;5132955;27;20051;-63
2020/12/28 05:21:42;;;;;;;1.10;0.80;;;;;;;4.10;75.79;95258.81;5133203;27;20047;-63
2020/12/28 05:24:13;;;;;;;0.60;0.60;;;;;;;4.05;75.78;95257.94;5132723;27;20036;-63
2020/12/28 05:26:41;;;;;;;1.95;0.70;;;;;;;3.99;75.88;95257.06;5133054;27;20667;-63
2020/12/28 05:29:13;;;;;;;1.25;0.70;;;;;;;4.00;76.02;95255.22;5133158;27;20340;-64
2020/12/28 05:31:40;;;;;;;0.70;0.70;;;;;;;3.98;76.23;95253.66;5133060;28;20508;-64
2020/12/28 05:34:13;;;;;;;1.98;0.98;;;;;;;3.98;76.09;95252.88;5132597;27;20035;-63
2020/12/28 05:36:40;;;;;;;2.58;0.90;;;;;;;3.97;76.10;95254.69;5133012;28;20035;-63
2020/12/28 05:39:07;;;;;;;2.33;0.70;;;;;;;3.93;76.16;95258.81;5133076;28;20050;-63
2020/12/28 05:41:35;;;;;;;0.77;0.77;;;;;;;3.96;76.42;95249.72;5133044;28;20051;-63
2020/12/28 05:44:09;;;;;;;1.08;0.70;;;;;;;3.94;76.17;95255.16;5114381;28;20044;-62
2020/12/28 05:46:36;;;;;;;0.82;0.82;;;;;;;3.91;76.26;95247.00;5132909;27;20047;-62
2020/12/28 05:49:07;;;;;;;0.60;0.60;;;;;;;3.85;76.46;95247.97;5132818;28;20043;-63
2020/12/28 05:51:35;;;;;;;1.67;1.15;;;;;;;3.76;76.80;95249.38;5133000;28;20043;-63
2020/12/28 05:54:09;;;;;;;3.78;1.00;;;;;;;3.76;76.91;95250.19;5132545;28;20047;-63
2020/12/28 05:56:43;;;;;;;0.93;0.85;;;;;;;3.76;76.80;95267.69;5133303;27;20048;-63
2020/12/28 05:59:12;;;;;;;1.63;1.00;;;;;;;3.74;76.81;95267.88;5132833;28;20442;-63
2020/12/28 06:01:43;;;;;;;2.20;1.30;;;;;;;3.75;76.80;95281.75;5132863;28;20040;-62
2020/12/28 06:04:15;;;;;;;3.28;1.70;;;;;;;3.74;76.90;95275.72;5132652;28;20054;-63
2020/12/28 06:06:43;;;;;;;2.35;1.20;;;;;;;3.69;76.84;95286.09;5132603;28;20504;-62
2020/12/28 06:09:10;;;;;;;2.75;1.00;;;;;;;3.63;76.86;95280.00;5132550;27;20047;-63
2020/12/28 06:11:37;;;;;;;1.95;1.13;;;;;;;3.64;76.99;95271.13;5132588;28;20054;-63
2020/12/28 06:14:15;;;;;;;0.88;0.80;;;;;;;3.62;77.34;95273.16;5132207;28;20066;-63
2020/12/28 06:16:42;;;;;;;2.05;1.10;;;;;;;3.66;77.20;95270.88;5114057;28;20047;-63
2020/12/28 06:19:19;;;;;;;2.00;1.00;;;;;;;3.70;76.97;95266.78;5132569;28;20504;-62
2020/12/28 06:21:46;;;;;;;1.48;0.90;;;;;;;3.75;76.82;95271.28;5133108;27;20043;-62
2020/12/28 06:24:13;;;;;;;1.23;1.13;;;;;;;3.81;76.83;95270.38;5132229;28;20039;-63
2020/12/28 06:26:39;;;;;;;1.13;0.80;;;;;;;3.86;76.67;95280.91;5132454;28;20049;-63
2020/12/28 06:29:07;;;;;;;4.05;1.58;;;;;;;3.90;76.58;95274.16;5114003;28;20051;-63
2020/12/28 06:31:35;;;;;;;4.40;1.38;;;;;;;3.93;76.58;95277.09;5132652;28;20047;-63
2020/12/28 06:34:01;;;;;;;1.58;1.00;;;;;;;3.95;76.60;95282.09;5132653;27;20058;-63
2020/12/28 06:36:28;;;;;;;2.72;1.20;;;;;;;4.01;76.50;95282.97;5132768;28;20054;-64
2020/12/28 06:39:00;;;;;;;1.40;1.30;;;;;;;3.93;76.11;95279.72;5132401;27;20043;-63
2020/12/28 06:41:28;;;;;;;1.58;1.48;;;;;;;3.86;76.53;95279.06;5132357;27;20078;-63
2020/12/28 06:43:59;;;;;;;2.75;1.30;;;;;;;3.86;76.78;95278.28;5131983;27;20050;-63
2020/12/28 06:46:26;;;;;;;2.28;1.60;;;;;;;3.87;76.53;95275.41;5134361;27;20277;-63
2020/12/28 06:48:54;;;;;;;1.40;1.10;;;;;;;3.85;76.58;95264.44;5135751;27;20043;-63
2020/12/28 06:51:23;;;;;;;2.28;1.77;;;;;;;3.85;76.61;95264.44;5136240;27;20374;-63
2020/12/28 06:53:53;;;;;;;4.70;1.88;;;;;;;3.87;76.73;95272.81;5117123;27;20065;-62
2020/12/28 06:56:20;;;;;;;2.30;1.60;;;;;;;3.90;76.81;95284.63;5135664;27;20103;-63
2020/12/28 06:58:57;;;;;;;1.63;1.27;;;;;;;3.95;77.01;95292.53;5135571;27;20047;-63
2020/12/28 07:01:24;;;;;;;1.30;1.20;;;;;;;4.03;77.23;95291.34;5135617;27;20118;-63
2020/12/28 07:03:54;;;;;;;1.20;1.10;;;;;;;4.07;77.22;95295.88;5135359;27;20066;-63
2020/12/28 07:06:22;;;;;;;2.22;1.38;;;;;;;4.14;77.18;95285.28;5135524;27;20050;-63
2020/12/28 07:08:48;;;;;;;3.38;1.48;;;;;;;4.19;77.01;95287.97;5117154;27;20051;-63
2020/12/28 07:11:18;;;;;;;2.80;1.85;;;;;;;4.20;76.74;95287.75;5135554;27;20065;-63
2020/12/28 07:13:45;;;;;;;10.60;6.35;;;;;;;4.20;76.69;95289.53;5135038;27;20074;-63
2020/12/28 07:16:12;;;;;;;9.10;4.97;;;;;;;4.22;76.63;95282.25;5135229;27;20041;-63
2020/12/28 07:18:40;;;;;;;4.07;2.78;;;;;;;4.18;76.47;95289.78;5135346;27;20039;-63
2020/12/28 07:21:08;;;;;;;3.75;2.50;;;;;;;4.18;76.79;95295.00;5135160;27;20039;-63
2020/12/28 07:23:35;;;;;;;2.90;1.83;;;;;;;4.18;76.50;95292.41;5134904;27;20062;-63
2020/12/28 07:26:04;;;;;;;1.63;1.50;;;;;;;4.18;76.75;95302.06;5134973;27;20045;-63
2020/12/28 07:28:31;;;;;;;3.90;1.70;;;;;;;4.16;76.66;95297.09;5135091;27;20047;-63
2020/12/28 07:30:59;;;;;;;4.72;2.15;;;;;;;4.13;76.72;95304.59;5135359;27;20042;-63
2020/12/28 07:33:25;;;;;;;2.60;2.08;;;;;;;4.06;76.80;95319.63;5116286;27;20050;-64
2020/12/28 07:36:07;;;;;;;3.95;2.83;;;;;;;4.07;77.32;95313.38;5134989;27;20042;-63
2020/12/28 07:38:35;;;;;;;3.15;2.35;;;;;;;4.08;77.46;95313.16;5135054;27;20043;-63
2020/12/28 07:41:05;;;;;;;15.55;5.60;;;;;;;4.14;77.44;95322.66;5134863;27;20039;-63
2020/12/28 07:43:32;;;;;;;7.25;4.28;;;;;;;4.15;77.60;95307.75;5134570;27;20047;-63
2020/12/28 07:46:17;;;;;;;5.60;4.20;;;;;;;4.17;77.30;95297.88;5134593;27;20046;-63
2020/12/28 07:48:46;;;;;;;11.07;4.85;;;;;;;4.14;77.48;95293.13;5134653;27;20050;-63
2020/12/28 07:51:18;;;;;;;5.30;2.03;;;;;;;4.12;77.54;95285.53;5134908;27;20485;-63
2020/12/28 07:56:44;;;;;;;1.92;1.63;;;;;;;4.16;77.69;95272.75;5183440;23;25076;-64
2020/12/28 07:59:30;;;;;;;2.10;1.67;;;;;;;4.16;77.93;95260.50;4994204;28;20558;-61
2020/12/28 08:02:01;;;;;;;1.83;1.45;;;;;;;4.22;78.21;95267.38;4994131;28;20039;-62
2020/12/28 08:04:28;;;;;;;3.58;1.52;;;;;;;4.30;77.88;95257.53;4993627;28;20042;-62
2020/12/28 08:06:57;;;;;;;1.92;1.65;;;;;;;4.30;77.73;95253.09;4974576;28;20133;-62
2020/12/28 08:09:24;;;;;;;5.40;1.77;;;;;;;4.27;77.76;95248.34;4974434;28;20054;-62
2020/12/28 08:11:58;;;;;;;2.42;1.48;;;;;;;4.26;78.14;95251.19;4974634;28;20147;-61
2020/12/28 08:14:25;;;;;;;2.85;1.40;;;;;;;4.27;78.01;95264.03;4974256;28;20408;-62
2020/12/28 08:16:52;;;;;;;2.65;1.50;;;;;;;4.27;78.24;95258.81;4974413;28;20054;-62
2020/12/28 08:19:28;;;;;;;2.35;1.80;;;;;;;4.29;78.28;95250.72;4974523;28;20109;-62
2020/12/28 08:21:56;;;;;;;2.47;1.10;;;;;;;4.30;78.12;95253.09;4974332;28;20057;-62
2020/12/28 08:24:23;;;;;;;2.80;1.42;;;;;;;4.35;78.10;95262.84;4974504;28;20051;-62
2020/12/28 08:26:51;;;;;;;1.90;1.15;;;;;;;4.41;78.43;95256.66;4974287;28;20043;-62
2020/12/28 08:29:18;;;;;;;1.95;1.38;;;;;;;4.47;78.09;95264.31;4974542;28;20496;-62
2020/12/28 08:31:45;;;;;;;1.50;1.40;;;;;;;4.44;77.64;95264.78;4974289;28;20101;-62
2020/12/28 08:34:13;;;;;;;3.42;1.73;;;;;;;4.39;77.77;95267.34;4973775;28;20042;-62
2020/12/28 08:36:42;;;;;;;1.33;1.10;;;;;;;4.37;77.89;95273.88;4974511;28;20456;-61
2020/12/28 08:39:13;;;;;;;4.30;1.30;;;;;;;4.43;78.15;95268.44;4974211;28;20274;-62
2020/12/28 08:41:50;;;;;;;2.88;1.80;;;;;;;4.46;78.05;95273.22;4974199;28;20146;-61
2020/12/28 08:44:28;;;;;;;2.22;1.50;;;;;;;4.45;77.94;95274.25;4973607;28;20043;-62
2020/12/28 08:47:00;;;;;;;3.15;1.40;;;;;;;4.46;77.81;95270.59;4974042;28;20047;-62
2020/12/28 08:49:27;;;;;;;3.55;1.48;;;;;;;4.53;78.00;95273.06;4973827;28;20042;-61
2020/12/28 08:51:55;;;;;;;1.45;1.25;;;;;;;4.57;77.74;95276.78;4972497;28;20047;-62
2020/12/28 08:54:25;;;;;;;1.50;1.40;;;;;;;4.65;77.80;95262.47;4973486;28;20038;-62
2020/12/28 08:56:54;;;;;;;3.15;1.70;;;;;;;4.69;77.80;95267.00;4973863;28;20065;-62
2020/12/28 08:59:21;;;;;;;2.33;1.52;;;;;;;4.74;77.58;95257.63;4972481;28;20046;-62
2020/12/28 09:01:52;;;;;;;2.55;1.58;;;;;;;4.70;77.15;95250.25;4973757;28;20051;-63
2020/12/28 09:04:19;;;;;;;2.05;1.85;;;;;;;4.68;77.41;95247.06;4973256;28;20065;-63
2020/12/28 09:06:46;;;;;;;1.65;1.42;;;;;;;4.77;77.44;95241.41;4972497;28;20055;-63
2020/12/28 09:09:14;;;;;;;1.50;1.15;;;;;;;4.82;77.76;95249.34;4972885;28;20576;-62
2020/12/28 09:11:41;;;;;;;3.17;1.70;;;;;;;4.92;77.81;95260.72;4973455;28;20055;-63
2020/12/28 09:14:07;;;;;;;1.70;1.25;;;;;;;4.90;77.17;95252.34;4973432;28;20113;-63
2020/12/28 09:16:34;;;;;;;2.97;2.10;;;;;;;4.91;77.27;95260.97;4973266;28;20585;-63
2020/12/28 09:19:02;;;;;;;3.83;2.78;;;;;;;4.96;77.48;95264.44;4972167;28;20432;-63
2020/12/28 09:21:28;;;;;;;3.63;2.15;;;;;;;4.96;77.18;95259.22;4973485;28;20054;-62
2020/12/28 09:23:55;;;;;;;2.53;2.10;;;;;;;4.96;77.17;95261.03;4973354;28;20106;-63
2020/12/28 09:26:22;;;;;;;2.92;1.70;;;;;;;4.94;77.05;95268.34;4972986;28;20042;-63
2020/12/28 09:28:49;;;;;;;1.92;1.45;;;;;;;4.94;77.17;95273.59;4973292;28;20489;-63
2020/12/28 09:31:17;;;;;;;3.40;1.85;;;;;;;4.96;77.23;95266.28;4973239;28;20156;-62
2020/12/28 09:33:44;;;;;;;3.33;2.58;;;;;;;5.01;77.21;95266.31;4972047;28;20051;-63
2020/12/28 09:36:18;;;;;;;5.28;3.15;;;;;;;5.02;77.04;95273.16;4972933;28;20097;-62
2020/12/28 09:38:44;;;;;;;;;;;;;;;5.01;76.87;95281.25;4973613;28;20131;-63
2020/12/28 09:41:11;;;;;;;3.75;2.15;;;;;;;5.08;77.16;95274.00;4973218;28;20396;-62
2020/12/28 09:43:39;;;;;;;3.03;2.00;;;;;;;5.10;77.14;95277.16;4973197;28;20046;-62
2020/12/28 09:46:06;;;;;;;3.80;2.25;;;;;;;5.08;77.05;95268.78;4972860;28;20066;-62
2020/12/28 09:48:32;;;;;;;2.58;2.10;;;;;;;5.10;77.00;95269.31;4973496;28;20051;-63
2020/12/28 09:50:59;;;;;;;1.67;1.58;;;;;;;5.09;77.03;95265.09;4973269;28;20046;-63
2020/12/28 09:53:27;;;;;;;2.90;1.55;;;;;;;5.10;77.20;95264.06;4973241;28;20508;-62
2020/12/28 09:55:54;;;;;;;1.50;1.40;;;;;;;5.08;77.18;95247.81;4972871;28;20042;-63
2020/12/28 09:58:21;;;;;;;1.70;1.20;;;;;;;5.09;77.30;95263.28;4973161;28;20515;-63
2020/12/28 10:00:47;;;;;;;1.80;1.17;;;;;;;5.18;77.42;95259.22;4973142;28;20054;-63
2020/12/28 10:03:14;;;;;;;3.05;2.08;;;;;;;5.27;77.49;95261.41;4973007;28;20042;-63
2020/12/28 10:05:40;;;;;;;5.13;2.90;;;;;;;5.29;77.27;95254.88;4972653;28;20408;-63
2020/12/28 10:08:07;;;;;;;5.35;3.80;;;;;;;5.35;77.40;95253.91;4973060;28;20046;-62
2020/12/28 10:10:34;;;;;;;12.07;7.70;;;;;;;5.39;77.40;95252.38;4972988;28;20050;-62
2020/12/28 10:13:01;;;;;;;11.18;8.60;;;;;;;5.42;77.42;95253.69;4971904;28;20043;-62
2020/12/28 10:15:28;;;;;;;10.70;7.05;;;;;;;5.48;77.39;95250.09;4972533;28;20103;-62
2020/12/28 10:18:12;;;;;;;5.82;4.38;;;;;;;5.47;77.41;95241.44;4973001;28;20106;-63
2020/12/28 10:20:39;;;;;;;7.28;5.35;;;;;;;5.50;77.53;95234.13;4975368;28;20523;-62
2020/12/28 10:23:05;;;;;;;5.68;4.40;;;;;;;5.55;77.78;95237.59;4976535;28;20046;-62
2020/12/28 10:25:32;;;;;;;6.90;5.90;;;;;;;5.60;77.41;95221.91;4976135;28;20429;-62
2020/12/28 10:28:01;;;;;;;3.35;3.05;;;;;;;5.59;77.07;95220.34;4976573;28;20051;-62
2020/12/28 10:30:28;;;;;;;3.60;2.70;;;;;;;5.63;77.18;95210.94;4976561;28;20117;-62
2020/12/28 10:32:55;;;;;;;2.95;2.30;;;;;;;5.68;77.12;95212.81;4976400;28;20047;-62
2020/12/28 10:35:22;;;;;;;2.00;1.63;;;;;;;5.74;76.98;95221.50;4976173;28;20043;-61
2020/12/28 10:37:49;;;;;;;1.90;1.65;;;;;;;5.77;77.00;95223.63;4976252;28;20077;-62
2020/12/28 10:40:16;;;;;;;2.65;1.95;;;;;;;5.77;76.78;95224.41;4976244;28;20463;-62
2020/12/28 10:42:53;;;;;;;3.58;2.28;;;;;;;5.74;77.08;95217.06;4976338;28;20042;-62
2020/12/28 10:45:20;;;;;;;1.33;1.10;;;;;;;5.75;76.99;95217.84;4975747;28;20051;-62
2020/12/28 10:47:47;;;;;;;2.05;1.30;;;;;;;5.74;76.64;95221.50;4975138;28;20051;-62
2020/12/28 10:50:14;;;;;;;1.83;1.20;;;;;;;5.75;76.74;95221.25;4976254;28;20046;-62
2020/12/28 10:52:40;;;;;;;0.80;0.80;;;;;;;5.78;76.66;95212.88;4975887;28;20043;-62
2020/12/28 10:55:07;;;;;;;0.90;0.90;;;;;;;5.83;76.25;95214.75;4975666;28;20043;-61
2020/12/28 10:57:34;;;;;;;0.95;0.88;;;;;;;5.75;75.81;95207.34;4975894;28;20101;-62
2020/12/28 11:00:02;;;;;;;0.93;0.82;;;;;;;5.76;76.27;95208.97;4975928;28;20047;-62
2020/12/28 11:02:38;;;;;;;0.63;0.50;;;;;;;5.69;75.58;95196.84;4975856;28;20054;-62
2020/12/28 11:05:08;;;;;;;0.77;0.70;;;;;;;5.66;76.07;95192.09;4975342;28;20039;-62
2020/12/28 11:07:38;;;;;;;0.73;0.73;;;;;;;5.73;75.50;95191.88;4975786;28;20055;-61
2020/12/28 11:10:08;;;;;;;1.63;0.90;;;;;;;5.68;75.83;95195.25;4975722;28;20066;-62
2020/12/28 11:12:39;;;;;;;0.90;0.80;;;;;;;5.69;75.91;95201.28;4975294;28;20065;-61
2020/12/28 11:15:09;;;;;;;0.98;0.80;;;;;;;5.65;75.77;95203.63;4974935;28;20055;-61
2020/12/28 11:17:39;;;;;;;1.02;0.90;;;;;;;5.65;75.97;95193.13;4975472;28;20050;-61
2020/12/28 11:20:22;;;;;;;2.92;1.60;;;;;;;5.63;76.52;95197.03;4975511;28;20046;-61
2020/12/28 11:22:58;;;;;;;3.78;2.03;;;;;;;5.67;76.51;95205.97;4975702;28;20042;-62
2020/12/28 11:25:33;;;;;;;3.63;2.20;;;;;;;5.66;76.45;95188.69;4975074;28;20125;-60
2020/12/28 11:28:00;;;;;;;1.83;1.20;;;;;;;5.66;76.57;95186.06;4975414;28;20057;-61
2020/12/28 11:30:26;;;;;;;1.10;1.00;;;;;;;5.70;76.35;95197.63;4975314;28;20497;-61
2020/12/28 11:32:54;;;;;;;1.15;1.05;;;;;;;5.69;76.88;95194.22;4974662;28;20049;-61
2020/12/28 11:35:21;;;;;;;1.85;1.60;;;;;;;5.84;76.83;95190.16;4974821;28;20135;-61
2020/12/28 11:37:47;;;;;;;1.77;1.52;;;;;;;5.92;76.50;95189.72;4975242;28;20448;-61
2020/12/28 11:40:14;;;;;;;1.52;1.10;;;;;;;5.87;76.27;95185.16;4975163;28;20093;-61
2020/12/28 11:42:41;;;;;;;3.88;3.28;;;;;;;5.86;76.30;95177.56;4975069;28;20117;-62
2020/12/28 11:45:09;;;;;;;1.90;1.30;;;;;;;5.90;76.29;95178.66;4974808;28;20043;-61
2020/12/28 11:47:36;;;;;;;1.98;1.77;;;;;;;5.92;76.38;95176.63;4975110;28;20323;-62
2020/12/28 11:50:06;;;;;;;1.58;1.25;;;;;;;5.98;76.19;95174.81;4974977;28;20039;-62
2020/12/28 11:52:33;;;;;;;3.30;1.75;;;;;;;5.98;76.31;95186.09;4974940;28;20042;-61
2020/12/28 11:55:00;;;;;;;1.30;1.20;;;;;;;5.98;75.88;95182.66;4974633;28;20054;-62
2020/12/28 11:57:27;;;;;;;1.73;1.30;;;;;;;5.94;76.38;95185.78;4974672;28;20046;-62
2020/12/28 11:59:53;;;;;;;4.13;1.80;;;;;;;6.03;76.23;95180.06;4974906;28;20492;-62
2020/12/28 12:02:21;;;;;;;2.63;1.48;;;;;;;6.06;75.94;95187.44;4974809;28;20453;-62
2020/12/28 12:04:49;;;;;;;1.33;1.15;;;;;;;6.01;75.74;95188.19;4974331;28;20053;-63